Time,TemperatureF,DewpointF,PressureIn,WindDirection,WindDirectionDegrees,WindSpeedMPH,WindSpeedGustMPH,Humidity,HourlyPrecipIn,Conditions,Clouds,dailyrainin,SoftwareType,DateUTC
2013-03-27 00:03:00,26.8,26.6,30.09,West,270,0.0,-999.0,99,-99.99,,,0.00,Acu-Link.com,2013-03-27 05:03:00,
2013-03-27 00:18:00,26.4,25.9,30.09,West,270,0.0,-999.0,98,-99.99,,,0.00,Acu-Link.com,2013-03-27 05:18:00,
2013-03-27 00:34:00,26.1,25.6,30.08,West,270,0.0,-999.0,98,-99.99,,,0.00,Acu-Link.com,2013-03-27 05:34:00,
2013-03-27 00:49:00,25.7,25.2,30.09,West,270,0.0,-999.0,98,-99.99,,,0.00,Acu-Link.com,2013-03-27 05:49:00,
2013-03-27 01:04:00,25.3,24.8,30.09,West,270,0.0,-999.0,98,-99.99,,,0.00,Acu-Link.com,2013-03-27 06:04:00,
2013-03-27 01:19:00,25.2,24.7,30.08,West,270,0.0,-999.0,98,-99.99,,,0.00,Acu-Link.com,2013-03-27 06:19:00,
2013-03-27 01:34:00,24.8,24.3,30.09,West,270,0.0,-999.0,98,-99.99,,,0.00,Acu-Link.com,2013-03-27 06:34:00,
2013-03-27 01:49:00,24.8,17.7,30.09,West,270,0.0,-999.0,74,-99.99,,,0.00,Acu-Link.com,2013-03-27 06:49:00,
2013-03-27 02:04:00,24.1,23.6,30.09,West,270,0.0,-999.0,98,-99.99,,,0.00,Acu-Link.com,2013-03-27 07:04:00,
2013-03-27 02:19:00,24.1,23.6,30.09,West,270,0.0,-999.0,98,-99.99,,,0.00,Acu-Link.com,2013-03-27 07:19:00,
2013-03-27 02:34:00,23.4,22.9,30.09,West,270,0.0,-999.0,98,-99.99,,,0.00,Acu-Link.com,2013-03-27 07:34:00,
2013-03-27 02:50:00,23.4,22.9,30.08,West,270,0.0,-999.0,98,-99.99,,,0.00,Acu-Link.com,2013-03-27 07:50:00,
2013-03-27 03:05:00,23.2,22.7,30.08,West,270,0.0,-999.0,98,-99.99,,,0.00,Acu-Link.com,2013-03-27 08:05:00,
2013-03-27 03:20:00,23.5,23.0,30.08,West,270,0.0,-999.0,98,-99.99,,,0.00,Acu-Link.com,2013-03-27 08:20:00,
2013-03-27 03:35:00,23.0,22.5,30.09,West,270,0.0,-999.0,98,-99.99,,,0.00,Acu-Link.com,2013-03-27 08:35:00,
2013-03-27 03:50:00,22.5,22.0,30.08,West,270,0.0,-999.0,98,-99.99,,,0.00,Acu-Link.com,2013-03-27 08:50:00,
2013-03-27 04:05:00,22.6,21.1,30.09,West,270,0.0,-999.0,94,-99.99,,,0.00,Acu-Link.com,2013-03-27 09:05:00,
2013-03-27 04:20:00,22.8,-34.8,30.09,West,270,0.0,-999.0,6,-99.99,,,0.00,Acu-Link.com,2013-03-27 09:20:00,
2013-03-27 04:35:00,22.5,15.5,30.10,West,270,0.0,-999.0,74,-99.99,,,0.00,Acu-Link.com,2013-03-27 09:35:00,
2013-03-27 04:50:00,21.9,21.4,30.09,West,270,0.0,-999.0,98,-99.99,,,0.00,Acu-Link.com,2013-03-27 09:50:00,
2013-03-27 05:06:00,22.1,7.2,30.10,West,270,0.0,-999.0,52,-99.99,,,0.00,Acu-Link.com,2013-03-27 10:06:00,
2013-03-27 05:21:00,21.6,21.1,30.10,West,270,0.0,-999.0,98,-99.99,,,0.00,Acu-Link.com,2013-03-27 10:21:00,
2013-03-27 06:06:00,21.0,20.5,30.10,West,270,0.0,-999.0,98,-99.99,,,0.00,Acu-Link.com,2013-03-27 11:06:00,
2013-03-27 06:36:00,20.7,20.2,30.11,West,270,0.0,-999.0,98,-99.99,,,0.00,Acu-Link.com,2013-03-27 11:36:00,
2013-03-27 07:06:00,23.0,-31.9,30.12,West,270,0.0,-999.0,7,-99.99,,,0.00,Acu-Link.com,2013-03-27 12:06:00,
2013-03-27 07:22:00,25.9,-61.9,30.12,West,270,0.0,-999.0,1,-99.99,,,0.00,Acu-Link.com,2013-03-27 12:22:00,
2013-03-27 07:37:00,30.7,-0.1,30.12,West,270,0.0,-999.0,26,-99.99,,,0.00,Acu-Link.com,2013-03-27 12:37:00,
2013-03-27 07:52:00,32.4,28.7,30.13,West,270,0.0,-999.0,86,-99.99,,,0.00,Acu-Link.com,2013-03-27 12:52:00,
2013-03-27 08:07:00,31.5,31.0,30.13,SSE,157,2.7,-999.0,98,-99.99,,,0.00,Acu-Link.com,2013-03-27 13:07:00,
2013-03-27 08:22:00,34.0,33.7,30.14,SSE,157,0.0,-999.0,99,-99.99,,,0.00,Acu-Link.com,2013-03-27 13:22:00,
2013-03-27 08:37:00,36.0,35.7,30.14,SSE,157,0.0,-999.0,99,-99.99,,,0.00,Acu-Link.com,2013-03-27 13:37:00,
2013-03-27 08:52:00,36.7,36.4,30.13,West,270,1.7,-999.0,99,-99.99,,,0.00,Acu-Link.com,2013-03-27 13:52:00,
2013-03-27 09:07:00,39.9,39.6,30.14,West,270,0.0,-999.0,99,-99.99,,,0.00,Acu-Link.com,2013-03-27 14:07:00,
2013-03-27 09:22:00,41.2,37.9,30.13,WSW,247,2.7,-999.0,88,-99.99,,,0.00,Acu-Link.com,2013-03-27 14:22:00,
2013-03-27 09:38:00,41.5,36.1,30.15,West,270,1.7,-999.0,81,-99.99,,,0.00,Acu-Link.com,2013-03-27 14:38:00,
2013-03-27 09:53:00,42.6,34.9,30.14,North,0,0.0,-999.0,74,-99.99,,,0.00,Acu-Link.com,2013-03-27 14:53:00,
2013-03-27 10:08:00,43.2,34.1,30.14,East,90,3.2,-999.0,70,-99.99,,,0.00,Acu-Link.com,2013-03-27 15:08:00,
2013-03-27 10:23:00,44.6,35.1,30.14,West,270,6.3,-999.0,69,-99.99,,,0.00,Acu-Link.com,2013-03-27 15:23:00,
2013-03-27 10:38:00,44.4,33.8,30.14,WSW,247,0.0,-999.0,66,-99.99,,,0.00,Acu-Link.com,2013-03-27 15:38:00,
2013-03-27 10:53:00,44.6,32.8,30.14,West,270,2.7,-999.0,63,-99.99,,,0.00,Acu-Link.com,2013-03-27 15:53:00,
2013-03-27 11:08:00,45.3,33.9,30.14,WNW,292,3.7,-999.0,64,-99.99,,,0.00,Acu-Link.com,2013-03-27 16:08:00,
2013-03-27 11:23:00,45.3,34.6,30.13,WNW,292,3.7,-999.0,66,-99.99,,,0.00,Acu-Link.com,2013-03-27 16:23:00,
2013-03-27 11:38:00,46.8,36.4,30.13,WNW,292,4.7,-999.0,67,-99.99,,,0.00,Acu-Link.com,2013-03-27 16:38:00,
2013-03-27 11:54:00,48.0,36.4,30.13,West,270,7.3,-999.0,64,-99.99,,,0.00,Acu-Link.com,2013-03-27 16:54:00,
2013-03-27 12:09:00,46.6,36.2,30.13,West,270,4.7,-999.0,67,-99.99,,,0.00,Acu-Link.com,2013-03-27 17:09:00,
2013-03-27 12:24:00,48.6,37.0,30.13,West,270,2.7,-999.0,64,-99.99,,,0.00,Acu-Link.com,2013-03-27 17:24:00,
2013-03-27 12:39:00,48.2,37.8,30.13,West,270,2.7,-999.0,67,-99.99,,,0.00,Acu-Link.com,2013-03-27 17:39:00,
2013-03-27 12:54:00,48.4,38.0,30.12,North,0,2.7,-999.0,67,-99.99,,,0.00,Acu-Link.com,2013-03-27 17:54:00,
2013-03-27 13:09:00,50.2,38.5,30.12,West,270,4.2,-999.0,64,-99.99,,,0.00,Acu-Link.com,2013-03-27 18:09:00,
2013-03-27 13:24:00,50.0,39.5,30.11,WNW,292,5.3,-999.0,67,-99.99,,,0.00,Acu-Link.com,2013-03-27 18:24:00,
2013-03-27 13:39:00,49.5,38.2,30.11,West,270,3.2,-999.0,65,-99.99,,,0.00,Acu-Link.com,2013-03-27 18:39:00,
2013-03-27 13:54:00,51.3,40.3,30.10,SW,225,2.7,-999.0,66,-99.99,,,0.00,Acu-Link.com,2013-03-27 18:54:00,
2013-03-27 14:10:00,49.8,38.1,30.10,West,270,2.7,-999.0,64,-99.99,,,0.00,Acu-Link.com,2013-03-27 19:10:00,
2013-03-27 14:25:00,51.1,37.3,30.10,WSW,247,7.8,-999.0,59,-99.99,,,0.00,Acu-Link.com,2013-03-27 19:25:00,
2013-03-27 14:40:00,51.6,38.2,30.09,West,270,0.0,-999.0,60,-99.99,,,0.00,Acu-Link.com,2013-03-27 19:40:00,
2013-03-27 14:55:00,50.5,37.1,30.08,NW,315,0.0,-999.0,60,-99.99,,,0.00,Acu-Link.com,2013-03-27 19:55:00,
2013-03-27 15:10:00,51.4,38.4,30.08,NW,315,4.2,-999.0,61,-99.99,,,0.00,Acu-Link.com,2013-03-27 20:10:00,
2013-03-27 15:25:00,51.1,37.7,30.08,WNW,292,4.2,-999.0,60,-99.99,,,0.00,Acu-Link.com,2013-03-27 20:25:00,
2013-03-27 15:40:00,51.4,36.7,30.07,West,270,2.2,-999.0,57,-99.99,,,0.00,Acu-Link.com,2013-03-27 20:40:00,
2013-03-27 15:55:00,53.1,36.9,30.06,West,270,6.3,-999.0,54,-99.99,,,0.00,Acu-Link.com,2013-03-27 20:55:00,
2013-03-27 16:10:00,51.1,36.4,30.06,West,270,4.2,-999.0,57,-99.99,,,0.00,Acu-Link.com,2013-03-27 21:10:00,
2013-03-27 16:26:00,52.9,36.7,30.06,West,270,4.7,-999.0,54,-99.99,,,0.00,Acu-Link.com,2013-03-27 21:26:00,
2013-03-27 16:41:00,52.3,36.6,30.07,West,270,7.8,-999.0,55,-99.99,,,0.00,Acu-Link.com,2013-03-27 21:41:00,
2013-03-27 16:56:00,50.7,35.6,30.05,West,270,7.3,-999.0,56,-99.99,,,0.00,Acu-Link.com,2013-03-27 21:56:00,
2013-03-27 17:26:00,49.6,35.0,30.06,West,270,3.7,-999.0,57,-99.99,,,0.00,Acu-Link.com,2013-03-27 22:26:00,
2013-03-27 17:41:00,48.7,34.6,30.06,West,270,7.3,-999.0,58,-99.99,,,0.00,Acu-Link.com,2013-03-27 22:41:00,
2013-03-27 17:56:00,48.7,34.6,30.06,West,270,5.8,-999.0,58,-99.99,,,0.00,Acu-Link.com,2013-03-27 22:56:00,
2013-03-27 18:11:00,48.0,33.9,30.06,West,270,0.0,-999.0,58,-99.99,,,0.00,Acu-Link.com,2013-03-27 23:11:00,
2013-03-27 18:42:00,46.6,33.9,30.05,WNW,292,1.1,-999.0,61,-99.99,,,0.00,Acu-Link.com,2013-03-27 23:42:00,
2013-03-27 18:57:00,44.4,34.1,30.06,WNW,292,0.0,-999.0,67,-99.99,,,0.00,Acu-Link.com,2013-03-27 23:57:00,
2013-03-27 19:12:00,42.4,33.3,30.06,WNW,292,0.0,-999.0,70,-99.99,,,0.00,Acu-Link.com,2013-03-28 00:12:00,
2013-03-27 19:27:00,40.5,33.5,30.05,WNW,292,0.0,-999.0,76,-99.99,,,0.00,Acu-Link.com,2013-03-28 00:27:00,
2013-03-27 19:42:00,39.4,33.1,30.05,WNW,292,0.0,-999.0,78,-99.99,,,0.00,Acu-Link.com,2013-03-28 00:42:00,
2013-03-27 19:57:00,38.8,33.5,30.05,WNW,292,0.0,-999.0,81,-99.99,,,0.00,Acu-Link.com,2013-03-28 00:57:00,
2013-03-27 20:12:00,37.8,35.1,30.06,WNW,292,0.0,-999.0,90,-99.99,,,0.00,Acu-Link.com,2013-03-28 01:12:00,
2013-03-27 20:28:00,37.2,35.4,30.06,WNW,292,0.0,-999.0,93,-99.99,,,0.00,Acu-Link.com,2013-03-28 01:28:00,
2013-03-27 20:43:00,37.2,34.5,30.06,WNW,292,0.0,-999.0,90,-99.99,,,0.00,Acu-Link.com,2013-03-28 01:43:00,
2013-03-27 20:58:00,37.4,34.5,30.07,WNW,292,0.0,-999.0,89,-99.99,,,0.00,Acu-Link.com,2013-03-28 01:58:00,
2013-03-27 21:13:00,36.1,34.8,30.06,WNW,292,0.0,-999.0,95,-99.99,,,0.00,Acu-Link.com,2013-03-28 02:13:00,
2013-03-27 21:28:00,35.8,35.5,30.06,WNW,292,0.0,-999.0,99,-99.99,,,0.00,Acu-Link.com,2013-03-28 02:28:00,
2013-03-27 21:43:00,35.8,35.5,30.07,WNW,292,0.0,-999.0,99,-99.99,,,0.00,Acu-Link.com,2013-03-28 02:43:00,
2013-03-27 21:58:00,36.3,36.0,30.07,WNW,292,0.0,-999.0,99,-99.99,,,0.00,Acu-Link.com,2013-03-28 02:58:00,
2013-03-27 22:13:00,36.5,36.2,30.07,WNW,292,0.0,-999.0,99,-99.99,,,0.00,Acu-Link.com,2013-03-28 03:13:00,
2013-03-27 22:28:00,36.7,36.4,30.06,WNW,292,0.0,-999.0,99,-99.99,,,0.00,Acu-Link.com,2013-03-28 03:28:00,
2013-03-27 22:44:00,37.8,36.5,30.07,WNW,292,0.0,-999.0,95,-99.99,,,0.00,Acu-Link.com,2013-03-28 03:44:00,
2013-03-27 22:59:00,38.3,35.9,30.07,WNW,292,0.0,-999.0,91,-99.99,,,0.00,Acu-Link.com,2013-03-28 03:59:00,
2013-03-27 23:14:00,37.9,36.1,30.06,WNW,292,0.0,-999.0,93,-99.99,,,0.00,Acu-Link.com,2013-03-28 04:14:00,
2013-03-27 23:29:00,37.9,36.1,30.06,WNW,292,0.0,-999.0,93,-99.99,,,0.00,Acu-Link.com,2013-03-28 04:29:00,
2013-03-27 23:44:00,37.9,35.8,30.06,WNW,292,0.0,-999.0,92,-99.99,,,0.00,Acu-Link.com,2013-03-28 04:44:00,
2013-03-27 23:59:00,38.1,35.2,30.06,WNW,292,0.0,-999.0,89,-99.99,,,0.00,Acu-Link.com,2013-03-28 04:59:00,